CST,Max TemperatureF,Mean TemperatureF,Min TemperatureF,Max Dew PointF,MeanDew PointF,Min DewpointF,Max Humidity, Mean Humidity, Min Humidity, Max Sea Level PressureIn, Mean Sea Level PressureIn, Min Sea Level PressureIn, Max VisibilityMiles, Mean VisibilityMiles, Min VisibilityMiles, Max Wind SpeedMPH, Mean Wind SpeedMPH, Max Gust SpeedMPH,PrecipitationIn, CloudCover, Events, WindDirDegrees
2014-1-1,5,-1,-7,1,-4,-17,100,79,50,30.40,30.33,30.21,10,8,1,15,9,,0.00,6,,2
2014-1-2,3,-2,-7,-2,-12,-31,100,64,24,30.46,30.38,30.22,10,10,9,15,5,18,0.00,2,,23
2014-1-3,41,23,5,36,16,-20,93,73,28,30.21,29.71,29.44,10,9,3,23,14,33,0.00,2,,181
2014-1-4,41,21,1,34,8,-6,81,73,65,30.31,30.04,29.55,10,10,10,33,18,44,0.01,4,,325
2014-1-5,5,-3,-11,-4,-14,-29,100,60,34,30.52,30.43,30.31,10,10,1,34,16,43,0.00,1,,314
2014-1-6,1,-5,-11,-2,-23,-53,92,45,7,30.47,30.37,30.19,10,10,10,25,17,31,0.00,0,,287
2014-1-7,15,6,-2,3,-11,-29,67,45,22,30.25,30.11,30.00,10,10,10,9,4,,0.00,6,,38
2014-1-8,17,12,6,12,5,1,100,72,62,30.40,30.32,30.24,10,10,10,17,4,21,0.00,7,,92
2014-1-9,35,24,14,27,16,9,93,77,52,30.28,30.01,29.78,10,9,4,20,13,26,0.00,4,,160
2014-1-10,39,32,26,30,27,23,93,81,65,29.77,29.62,29.52,10,8,2,20,11,23,0.00,5,,215
2014-1-11,42,34,26,27,23,19,80,67,49,29.81,29.69,29.52,10,10,10,21,13,26,0.00,0,,271
2014-1-12,46,42,37,34,29,23,70,58,43,29.68,29.50,29.37,10,10,10,21,11,26,0.00,1,,254
2014-1-13,48,36,24,36,25,21,86,64,37,29.81,29.70,29.56,10,10,10,25,14,33,0.00,1,,247
2014-1-14,44,28,12,36,16,7,85,66,43,30.26,30.05,29.58,10,10,10,40,25,48,0.00,4,,312
2014-1-15,44,25,6,30,15,1,100,65,39,30.25,29.94,29.66,10,10,10,24,9,31,0.00,2,,237
2014-1-16,42,27,12,23,9,0,68,57,42,30.14,29.87,29.68,10,9,2,46,29,62,0.00,4,,302
2014-1-17,35,20,6,18,7,-2,79,57,40,30.16,30.03,29.66,10,10,10,23,13,31,0.00,1,,257
2014-1-18,41,30,19,30,21,16,100,75,48,30.08,29.85,29.60,10,10,10,43,22,55,0.00,4,,293
2014-1-19,60,40,21,27,24,14,86,55,23,29.93,29.75,29.63,10,10,10,33,13,43,0.00,0,,256
2014-1-20,39,18,-2,27,15,-11,85,70,56,30.53,30.13,29.84,10,10,4,40,16,51,0.00,2,,302
2014-1-21,26,10,-5,19,-1,-13,92,62,32,30.53,30.23,29.98,10,10,10,23,10,28,0.00,4,,236
2014-1-22,24,11,-2,19,3,-9,86,70,52,30.65,30.29,30.06,10,9,3,33,17,41,0.00,3,,318
2014-1-23,17,5,-7,-2,-8,-15,92,61,35,30.80,30.63,30.22,10,10,10,17,11,24,0.00,0,,255
2014-1-24,48,34,19,34,21,0,81,54,38,30.20,29.86,29.67,10,10,10,32,19,40,0.00,5,,267
2014-1-25,50,34,19,30,20,9,86,62,38,30.08,29.83,29.43,10,10,7,37,17,43,0.00,5,,294
2014-1-26,51,26,1,32,16,-9,92,61,44,30.32,29.78,29.48,10,10,1,37,27,55,0.00,4,,301
2014-1-27,6,0,-7,-2,-9,-17,100,65,48,30.49,30.42,30.33,10,10,8,29,14,34,0.00,0,,316
2014-1-28,15,5,-5,0,-7,-13,100,63,35,30.42,30.31,30.14,10,10,10,20,7,25,0.00,0,,267
2014-1-29,51,26,0,12,4,-15,100,42,16,30.14,29.79,29.41,10,10,10,21,8,26,0.00,0,,191
2014-1-30,44,26,8,32,12,1,93,68,27,30.11,29.74,29.30,10,10,8,31,16,40,0.02,3,,312
2014-1-31,26,16,6,16,6,1,79,67,47,30.13,30.04,29.92,10,10,8,13,5,,0.00,1,,166